sensor_id;sensor_type;location;lat;lon;timestamp;temperature;humidity
9919;DHT22;4998;51.024;13.828;2022-08-18T00:01:06;26.30;46.80
9919;DHT22;4998;51.024;13.828;2022-08-18T00:03:34;26.30;46.90
9919;DHT22;4998;51.024;13.828;2022-08-18T00:06:01;26.30;47.00
9919;DHT22;4998;51.024;13.828;2022-08-18T00:08:28;26.20;47.00
9919;DHT22;4998;51.024;13.828;2022-08-18T00:10:56;26.20;47.20
9919;DHT22;4998;51.024;13.828;2022-08-18T00:13:23;26.20;47.40
9919;DHT22;4998;51.024;13.828;2022-08-18T00:15:51;26.10;47.30
9919;DHT22;4998;51.024;13.828;2022-08-18T00:18:18;26.10;47.50
9919;DHT22;4998;51.024;13.828;2022-08-18T00:20:45;26.10;47.50
9919;DHT22;4998;51.024;13.828;2022-08-18T00:23:13;26.00;47.70
9919;DHT22;4998;51.024;13.828;2022-08-18T00:25:40;26.00;47.80
9919;DHT22;4998;51.024;13.828;2022-08-18T00:28:08;25.90;47.80
9919;DHT22;4998;51.024;13.828;2022-08-18T00:30:35;25.90;48.00
9919;DHT22;4998;51.024;13.828;2022-08-18T00:33:02;25.90;48.10
9919;DHT22;4998;51.024;13.828;2022-08-18T00:35:31;25.80;48.10
9919;DHT22;4998;51.024;13.828;2022-08-18T00:38:00;25.80;48.20
9919;DHT22;4998;51.024;13.828;2022-08-18T00:40:31;25.80;48.30
9919;DHT22;4998;51.024;13.828;2022-08-18T00:43:02;25.80;48.40
9919;DHT22;4998;51.024;13.828;2022-08-18T00:45:34;25.70;48.60
9919;DHT22;4998;51.024;13.828;2022-08-18T00:48:02;25.70;48.60
9919;DHT22;4998;51.024;13.828;2022-08-18T00:50:32;25.70;48.70
9919;DHT22;4998;51.024;13.828;2022-08-18T00:53:03;25.60;48.80
9919;DHT22;4998;51.024;13.828;2022-08-18T00:55:32;25.60;48.90
9919;DHT22;4998;51.024;13.828;2022-08-18T00:58:05;25.60;48.90
9919;DHT22;4998;51.024;13.828;2022-08-18T01:00:34;25.50;49.20
9919;DHT22;4998;51.024;13.828;2022-08-18T01:03:05;25.50;49.20
9919;DHT22;4998;51.024;13.828;2022-08-18T01:05:40;25.50;49.30
9919;DHT22;4998;51.024;13.828;2022-08-18T01:08:12;25.40;49.30
9919;DHT22;4998;51.024;13.828;2022-08-18T01:10:40;25.40;49.40
9919;DHT22;4998;51.024;13.828;2022-08-18T01:13:08;25.40;49.50
9919;DHT22;4998;51.024;13.828;2022-08-18T01:15:37;25.30;49.50
9919;DHT22;4998;51.024;13.828;2022-08-18T01:18:08;25.30;49.60
9919;DHT22;4998;51.024;13.828;2022-08-18T01:20:58;25.30;49.70
9919;DHT22;4998;51.024;13.828;2022-08-18T01:23:46;25.20;49.80
9919;DHT22;4998;51.024;13.828;2022-08-18T01:26:15;25.20;49.80
9919;DHT22;4998;51.024;13.828;2022-08-18T01:28:43;25.20;49.90
9919;DHT22;4998;51.024;13.828;2022-08-18T01:31:12;25.20;50.00
9919;DHT22;4998;51.024;13.828;2022-08-18T01:33:54;25.10;50.00
9919;DHT22;4998;51.024;13.828;2022-08-18T01:36:22;25.10;50.00
9919;DHT22;4998;51.024;13.828;2022-08-18T01:38:51;25.10;50.20
9919;DHT22;4998;51.024;13.828;2022-08-18T01:41:20;25.00;50.30
9919;DHT22;4998;51.024;13.828;2022-08-18T01:43:48;25.00;50.30
9919;DHT22;4998;51.024;13.828;2022-08-18T01:46:16;25.00;50.30
9919;DHT22;4998;51.024;13.828;2022-08-18T01:48:45;25.00;50.60
9919;DHT22;4998;51.024;13.828;2022-08-18T01:51:13;24.90;50.50
9919;DHT22;4998;51.024;13.828;2022-08-18T01:53:40;24.90;50.60
9919;DHT22;4998;51.024;13.828;2022-08-18T01:56:09;24.90;50.70
9919;DHT22;4998;51.024;13.828;2022-08-18T01:58:36;24.90;50.90
9919;DHT22;4998;51.024;13.828;2022-08-18T02:01:03;24.80;50.80
9919;DHT22;4998;51.024;13.828;2022-08-18T02:03:34;24.80;50.90
9919;DHT22;4998;51.024;13.828;2022-08-18T02:06:04;24.80;51.10
9919;DHT22;4998;51.024;13.828;2022-08-18T02:08:32;24.80;51.20
9919;DHT22;4998;51.024;13.828;2022-08-18T02:10:59;24.70;51.10
9919;DHT22;4998;51.024;13.828;2022-08-18T02:13:27;24.70;51.20
9919;DHT22;4998;51.024;13.828;2022-08-18T02:15:55;24.70;51.30
9919;DHT22;4998;51.024;13.828;2022-08-18T02:18:24;24.70;51.30
9919;DHT22;4998;51.024;13.828;2022-08-18T02:20:52;24.70;51.50
9919;DHT22;4998;51.024;13.828;2022-08-18T02:23:20;24.60;51.40
9919;DHT22;4998;51.024;13.828;2022-08-18T02:25:47;24.60;51.50
9919;DHT22;4998;51.024;13.828;2022-08-18T02:28:14;24.60;51.60
9919;DHT22;4998;51.024;13.828;2022-08-18T02:30:44;24.60;51.60
9919;DHT22;4998;51.024;13.828;2022-08-18T02:33:11;24.60;51.90
9919;DHT22;4998;51.024;13.828;2022-08-18T02:35:38;24.60;51.70
9919;DHT22;4998;51.024;13.828;2022-08-18T02:38:08;24.60;51.90
9919;DHT22;4998;51.024;13.828;2022-08-18T02:40:35;24.50;51.80
9919;DHT22;4998;51.024;13.828;2022-08-18T02:43:05;24.50;51.90
9919;DHT22;4998;51.024;13.828;2022-08-18T02:45:33;24.50;52.10
9919;DHT22;4998;51.024;13.828;2022-08-18T02:48:05;24.50;52.00
9919;DHT22;4998;51.024;13.828;2022-08-18T02:50:32;24.50;52.20
9919;DHT22;4998;51.024;13.828;2022-08-18T02:53:08;24.50;52.00
9919;DHT22;4998;51.024;13.828;2022-08-18T02:55:36;24.50;52.10
9919;DHT22;4998;51.024;13.828;2022-08-18T02:58:03;24.50;52.10
9919;DHT22;4998;51.024;13.828;2022-08-18T03:00:30;24.40;52.10
9919;DHT22;4998;51.024;13.828;2022-08-18T03:02:57;24.50;52.20
9919;DHT22;4998;51.024;13.828;2022-08-18T03:05:26;24.40;52.20
9919;DHT22;4998;51.024;13.828;2022-08-18T03:07:54;24.50;52.50
9919;DHT22;4998;51.024;13.828;2022-08-18T03:10:21;24.40;52.40
9919;DHT22;4998;51.024;13.828;2022-08-18T03:12:48;24.40;52.40
9919;DHT22;4998;51.024;13.828;2022-08-18T03:15:15;24.40;52.50
9919;DHT22;4998;51.024;13.828;2022-08-18T03:17:43;24.40;52.50
9919;DHT22;4998;51.024;13.828;2022-08-18T03:20:10;24.40;52.60
9919;DHT22;4998;51.024;13.828;2022-08-18T03:22:40;24.40;52.50
9919;DHT22;4998;51.024;13.828;2022-08-18T03:25:07;24.40;52.70
9919;DHT22;4998;51.024;13.828;2022-08-18T03:27:34;24.40;52.70
9919;DHT22;4998;51.024;13.828;2022-08-18T03:30:02;24.40;52.70
9919;DHT22;4998;51.024;13.828;2022-08-18T03:32:30;24.40;52.80
9919;DHT22;4998;51.024;13.828;2022-08-18T03:34:56;24.40;52.80
9919;DHT22;4998;51.024;13.828;2022-08-18T03:37:24;24.30;52.70
9919;DHT22;4998;51.024;13.828;2022-08-18T03:39:53;24.30;54.70
9919;DHT22;4998;51.024;13.828;2022-08-18T03:42:20;24.20;54.00
9919;DHT22;4998;51.024;13.828;2022-08-18T03:44:46;24.30;53.80
9919;DHT22;4998;51.024;13.828;2022-08-18T03:47:13;24.30;53.70
9919;DHT22;4998;51.024;13.828;2022-08-18T03:49:42;24.30;53.60
9919;DHT22;4998;51.024;13.828;2022-08-18T03:52:10;24.30;53.70
9919;DHT22;4998;51.024;13.828;2022-08-18T03:54:37;24.30;53.60
9919;DHT22;4998;51.024;13.828;2022-08-18T03:57:09;24.30;53.70
9919;DHT22;4998;51.024;13.828;2022-08-18T03:59:38;24.30;53.80
9919;DHT22;4998;51.024;13.828;2022-08-18T04:02:06;24.20;53.80
9919;DHT22;4998;51.024;13.828;2022-08-18T04:04:33;24.20;53.60
9919;DHT22;4998;51.024;13.828;2022-08-18T04:07:04;24.20;53.70
9919;DHT22;4998;51.024;13.828;2022-08-18T04:09:33;24.20;53.80
9919;DHT22;4998;51.024;13.828;2022-08-18T04:12:04;24.20;53.80
9919;DHT22;4998;51.024;13.828;2022-08-18T04:14:39;24.20;53.90
9919;DHT22;4998;51.024;13.828;2022-08-18T04:17:07;24.20;53.80
9919;DHT22;4998;51.024;13.828;2022-08-18T04:19:35;24.20;53.90
9919;DHT22;4998;51.024;13.828;2022-08-18T04:22:03;24.20;53.90
9919;DHT22;4998;51.024;13.828;2022-08-18T04:24:31;24.20;54.00
9919;DHT22;4998;51.024;13.828;2022-08-18T04:27:01;24.00;53.90
9919;DHT22;4998;51.024;13.828;2022-08-18T04:29:29;24.20;54.10
9919;DHT22;4998;51.024;13.828;2022-08-18T04:31:59;24.10;54.10
9919;DHT22;4998;51.024;13.828;2022-08-18T04:34:27;24.10;54.40
9919;DHT22;4998;51.024;13.828;2022-08-18T04:36:54;24.10;54.20
9919;DHT22;4998;51.024;13.828;2022-08-18T04:39:22;24.10;54.30
9919;DHT22;4998;51.024;13.828;2022-08-18T04:41:50;24.10;54.50
9919;DHT22;4998;51.024;13.828;2022-08-18T04:44:19;24.00;54.50
9919;DHT22;4998;51.024;13.828;2022-08-18T04:46:51;24.00;54.60
9919;DHT22;4998;51.024;13.828;2022-08-18T04:49:22;24.00;54.70
9919;DHT22;4998;51.024;13.828;2022-08-18T04:51:50;24.10;54.90
9919;DHT22;4998;51.024;13.828;2022-08-18T04:54:32;24.10;54.90
9919;DHT22;4998;51.024;13.828;2022-08-18T04:57:07;24.20;55.00
9919;DHT22;4998;51.024;13.828;2022-08-18T04:59:34;24.20;55.20
9919;DHT22;4998;51.024;13.828;2022-08-18T05:02:02;24.20;55.00
9919;DHT22;4998;51.024;13.828;2022-08-18T05:04:34;24.30;55.10
9919;DHT22;4998;51.024;13.828;2022-08-18T05:07:03;24.30;55.10
9919;DHT22;4998;51.024;13.828;2022-08-18T05:09:31;24.20;54.90
9919;DHT22;4998;51.024;13.828;2022-08-18T05:11:58;24.40;55.10
9919;DHT22;4998;51.024;13.828;2022-08-18T05:14:25;24.40;55.10
9919;DHT22;4998;51.024;13.828;2022-08-18T05:16:52;24.50;55.10
9919;DHT22;4998;51.024;13.828;2022-08-18T05:19:19;24.50;55.10
9919;DHT22;4998;51.024;13.828;2022-08-18T05:21:48;24.50;55.10
9919;DHT22;4998;51.024;13.828;2022-08-18T05:24:16;24.60;55.40
9919;DHT22;4998;51.024;13.828;2022-08-18T05:26:43;24.60;55.30
9919;DHT22;4998;51.024;13.828;2022-08-18T05:29:11;24.70;55.30
9919;DHT22;4998;51.024;13.828;2022-08-18T05:31:38;24.80;55.30
9919;DHT22;4998;51.024;13.828;2022-08-18T05:34:05;24.90;55.20
9919;DHT22;4998;51.024;13.828;2022-08-18T05:36:53;25.00;55.90
9919;DHT22;4998;51.024;13.828;2022-08-18T05:39:27;25.10;55.30
9919;DHT22;4998;51.024;13.828;2022-08-18T05:42:02;25.10;55.10
9919;DHT22;4998;51.024;13.828;2022-08-18T05:44:32;25.20;54.90
9919;DHT22;4998;51.024;13.828;2022-08-18T05:47:05;25.30;54.90
9919;DHT22;4998;51.024;13.828;2022-08-18T05:49:34;25.30;54.90
9919;DHT22;4998;51.024;13.828;2022-08-18T05:52:06;25.30;54.90
9919;DHT22;4998;51.024;13.828;2022-08-18T05:54:37;25.40;55.00
9919;DHT22;4998;51.024;13.828;2022-08-18T05:57:24;25.40;55.10
9919;DHT22;4998;51.024;13.828;2022-08-18T05:59:53;25.50;55.10
9919;DHT22;4998;51.024;13.828;2022-08-18T06:02:29;25.70;55.20
9919;DHT22;4998;51.024;13.828;2022-08-18T06:05:00;25.80;55.10
9919;DHT22;4998;51.024;13.828;2022-08-18T06:07:35;26.00;55.00
9919;DHT22;4998;51.024;13.828;2022-08-18T06:10:05;26.10;54.90
9919;DHT22;4998;51.024;13.828;2022-08-18T06:12:35;26.30;54.80
9919;DHT22;4998;51.024;13.828;2022-08-18T06:15:08;26.40;54.70
9919;DHT22;4998;51.024;13.828;2022-08-18T06:17:52;26.60;54.50
9919;DHT22;4998;51.024;13.828;2022-08-18T06:20:27;26.70;54.30
9919;DHT22;4998;51.024;13.828;2022-08-18T06:23:05;26.90;54.20
9919;DHT22;4998;51.024;13.828;2022-08-18T06:25:39;27.10;54.10
9919;DHT22;4998;51.024;13.828;2022-08-18T06:28:14;27.30;54.00
9919;DHT22;4998;51.024;13.828;2022-08-18T06:30:47;27.40;53.90
9919;DHT22;4998;51.024;13.828;2022-08-18T06:33:28;27.60;53.60
9919;DHT22;4998;51.024;13.828;2022-08-18T06:36:05;27.70;53.40
9919;DHT22;4998;51.024;13.828;2022-08-18T06:38:48;27.80;53.20
9919;DHT22;4998;51.024;13.828;2022-08-18T06:41:19;28.00;53.10
9919;DHT22;4998;51.024;13.828;2022-08-18T06:44:06;28.10;53.10
9919;DHT22;4998;51.024;13.828;2022-08-18T06:46:41;28.10;52.90
9919;DHT22;4998;51.024;13.828;2022-08-18T06:49:10;28.20;52.70
9919;DHT22;4998;51.024;13.828;2022-08-18T06:51:38;28.40;52.80
9919;DHT22;4998;51.024;13.828;2022-08-18T06:56:52;28.60;52.50
9919;DHT22;4998;51.024;13.828;2022-08-18T06:59:23;28.70;52.30
9919;DHT22;4998;51.024;13.828;2022-08-18T07:01:53;28.80;51.90
9919;DHT22;4998;51.024;13.828;2022-08-18T07:04:41;28.90;51.80
9919;DHT22;4998;51.024;13.828;2022-08-18T07:07:30;29.00;51.60
9919;DHT22;4998;51.024;13.828;2022-08-18T07:09:59;29.00;51.50
9919;DHT22;4998;51.024;13.828;2022-08-18T07:12:28;29.10;51.50
9919;DHT22;4998;51.024;13.828;2022-08-18T07:14:57;29.10;51.50
9919;DHT22;4998;51.024;13.828;2022-08-18T07:17:26;29.10;51.40
9919;DHT22;4998;51.024;13.828;2022-08-18T07:19:59;29.10;51.40
9919;DHT22;4998;51.024;13.828;2022-08-18T07:22:27;29.10;51.30
9919;DHT22;4998;51.024;13.828;2022-08-18T07:24:56;29.10;51.30
9919;DHT22;4998;51.024;13.828;2022-08-18T07:30:29;29.10;51.30
9919;DHT22;4998;51.024;13.828;2022-08-18T07:33:00;29.20;51.10
9919;DHT22;4998;51.024;13.828;2022-08-18T07:35:33;29.20;51.10
9919;DHT22;4998;51.024;13.828;2022-08-18T07:38:09;29.20;51.20
9919;DHT22;4998;51.024;13.828;2022-08-18T07:40:46;29.20;51.20
9919;DHT22;4998;51.024;13.828;2022-08-18T07:43:19;29.20;51.10
9919;DHT22;4998;51.024;13.828;2022-08-18T07:45:48;29.20;51.20
9919;DHT22;4998;51.024;13.828;2022-08-18T07:48:17;29.30;51.20
9919;DHT22;4998;51.024;13.828;2022-08-18T07:50:52;29.30;51.00
9919;DHT22;4998;51.024;13.828;2022-08-18T07:53:29;29.40;51.10
9919;DHT22;4998;51.024;13.828;2022-08-18T07:56:04;29.40;51.00
9919;DHT22;4998;51.024;13.828;2022-08-18T07:58:38;29.40;50.90
9919;DHT22;4998;51.024;13.828;2022-08-18T08:01:14;29.50;50.80
9919;DHT22;4998;51.024;13.828;2022-08-18T08:03:49;29.50;50.80
9919;DHT22;4998;51.024;13.828;2022-08-18T08:06:24;29.50;50.70
9919;DHT22;4998;51.024;13.828;2022-08-18T08:09:00;29.60;50.80
9919;DHT22;4998;51.024;13.828;2022-08-18T08:11:37;29.70;50.70
9919;DHT22;4998;51.024;13.828;2022-08-18T08:14:17;29.70;50.70
9919;DHT22;4998;51.024;13.828;2022-08-18T08:16:49;29.80;50.60
9919;DHT22;4998;51.024;13.828;2022-08-18T08:19:45;29.80;50.60
9919;DHT22;4998;51.024;13.828;2022-08-18T08:22:19;29.80;50.50
9919;DHT22;4998;51.024;13.828;2022-08-18T08:24:53;29.90;50.50
9919;DHT22;4998;51.024;13.828;2022-08-18T08:27:32;30.00;50.30
9919;DHT22;4998;51.024;13.828;2022-08-18T08:30:04;30.00;50.30
9919;DHT22;4998;51.024;13.828;2022-08-18T08:32:36;30.10;50.40
9919;DHT22;4998;51.024;13.828;2022-08-18T08:35:07;30.10;50.50
9919;DHT22;4998;51.024;13.828;2022-08-18T08:37:41;30.20;50.30
9919;DHT22;4998;51.024;13.828;2022-08-18T08:40:15;30.30;50.10
9919;DHT22;4998;51.024;13.828;2022-08-18T08:42:48;30.30;50.10
9919;DHT22;4998;51.024;13.828;2022-08-18T08:45:22;30.40;50.00
9919;DHT22;4998;51.024;13.828;2022-08-18T08:47:59;30.50;49.90
9919;DHT22;4998;51.024;13.828;2022-08-18T08:50:29;30.60;49.70
9919;DHT22;4998;51.024;13.828;2022-08-18T08:53:00;30.80;49.80
9919;DHT22;4998;51.024;13.828;2022-08-18T08:55:32;30.80;49.50
9919;DHT22;4998;51.024;13.828;2022-08-18T08:58:11;31.00;49.50
9919;DHT22;4998;51.024;13.828;2022-08-18T09:00:42;31.20;49.20
9919;DHT22;4998;51.024;13.828;2022-08-18T09:03:24;31.30;49.10
9919;DHT22;4998;51.024;13.828;2022-08-18T09:06:02;31.30;48.80
9919;DHT22;4998;51.024;13.828;2022-08-18T09:08:49;31.50;48.50
9919;DHT22;4998;51.024;13.828;2022-08-18T09:17:36;31.80;48.00
9919;DHT22;4998;51.024;13.828;2022-08-18T09:20:25;31.90;47.80
9919;DHT22;4998;51.024;13.828;2022-08-18T09:22:57;32.00;47.30
9919;DHT22;4998;51.024;13.828;2022-08-18T09:25:33;32.10;47.30
9919;DHT22;4998;51.024;13.828;2022-08-18T09:28:12;32.20;46.80
9919;DHT22;4998;51.024;13.828;2022-08-18T09:30:57;32.20;46.90
9919;DHT22;4998;51.024;13.828;2022-08-18T09:36:52;32.40;46.40
9919;DHT22;4998;51.024;13.828;2022-08-18T09:39:30;32.50;46.00
9919;DHT22;4998;51.024;13.828;2022-08-18T09:42:25;32.60;45.60
9919;DHT22;4998;51.024;13.828;2022-08-18T09:45:00;32.70;45.60
9919;DHT22;4998;51.024;13.828;2022-08-18T09:47:56;32.80;45.20
9919;DHT22;4998;51.024;13.828;2022-08-18T09:54:07;32.80;45.50
9919;DHT22;4998;51.024;13.828;2022-08-18T09:57:05;33.00;45.30
9919;DHT22;4998;51.024;13.828;2022-08-18T10:03:11;33.10;45.00
9919;DHT22;4998;51.024;13.828;2022-08-18T10:05:55;33.20;45.20
9919;DHT22;4998;51.024;13.828;2022-08-18T10:12:07;33.20;44.60
9919;DHT22;4998;51.024;13.828;2022-08-18T10:14:52;33.30;44.60
9919;DHT22;4998;51.024;13.828;2022-08-18T10:17:38;33.40;44.30
9919;DHT22;4998;51.024;13.828;2022-08-18T10:20:21;33.40;44.00
9919;DHT22;4998;51.024;13.828;2022-08-18T10:22:52;33.40;44.00
9919;DHT22;4998;51.024;13.828;2022-08-18T10:25:36;33.40;43.90
9919;DHT22;4998;51.024;13.828;2022-08-18T10:28:05;33.40;43.70
9919;DHT22;4998;51.024;13.828;2022-08-18T10:31:03;33.50;43.80
9919;DHT22;4998;51.024;13.828;2022-08-18T10:34:00;33.40;43.80
9919;DHT22;4998;51.024;13.828;2022-08-18T10:36:49;33.50;43.70
9919;DHT22;4998;51.024;13.828;2022-08-18T10:39:21;33.40;43.60
9919;DHT22;4998;51.024;13.828;2022-08-18T10:42:01;33.50;43.40
9919;DHT22;4998;51.024;13.828;2022-08-18T10:44:31;33.40;43.10
9919;DHT22;4998;51.024;13.828;2022-08-18T10:47:00;33.40;43.00
9919;DHT22;4998;51.024;13.828;2022-08-18T10:49:29;33.40;43.10
9919;DHT22;4998;51.024;13.828;2022-08-18T10:52:31;33.40;43.10
9919;DHT22;4998;51.024;13.828;2022-08-18T10:55:22;33.40;43.20
9919;DHT22;4998;51.024;13.828;2022-08-18T11:01:05;33.40;42.90
9919;DHT22;4998;51.024;13.828;2022-08-18T11:03:44;33.40;42.80
9919;DHT22;4998;51.024;13.828;2022-08-18T11:06:17;33.40;42.60
9919;DHT22;4998;51.024;13.828;2022-08-18T11:08:47;33.30;42.60
9919;DHT22;4998;51.024;13.828;2022-08-18T11:11:21;33.30;42.30
9919;DHT22;4998;51.024;13.828;2022-08-18T11:13:58;33.30;42.20
9919;DHT22;4998;51.024;13.828;2022-08-18T11:16:37;33.20;42.10
9919;DHT22;4998;51.024;13.828;2022-08-18T11:19:07;33.20;42.10
9919;DHT22;4998;51.024;13.828;2022-08-18T11:21:40;33.20;42.40
9919;DHT22;4998;51.024;13.828;2022-08-18T11:24:14;33.10;42.20
9919;DHT22;4998;51.024;13.828;2022-08-18T11:26:45;33.10;42.30
9919;DHT22;4998;51.024;13.828;2022-08-18T11:29:18;33.10;42.90
9919;DHT22;4998;51.024;13.828;2022-08-18T11:31:46;33.10;42.10
9919;DHT22;4998;51.024;13.828;2022-08-18T11:34:16;33.10;42.30
9919;DHT22;4998;51.024;13.828;2022-08-18T11:36:54;33.10;42.10
9919;DHT22;4998;51.024;13.828;2022-08-18T11:39:22;33.10;42.00
9919;DHT22;4998;51.024;13.828;2022-08-18T11:41:50;33.10;42.00
9919;DHT22;4998;51.024;13.828;2022-08-18T11:44:20;33.10;42.00
9919;DHT22;4998;51.024;13.828;2022-08-18T11:46:53;33.00;42.50
9919;DHT22;4998;51.024;13.828;2022-08-18T11:49:28;33.00;41.70
9919;DHT22;4998;51.024;13.828;2022-08-18T11:52:00;33.00;41.70
9919;DHT22;4998;51.024;13.828;2022-08-18T11:54:38;32.90;41.80
9919;DHT22;4998;51.024;13.828;2022-08-18T11:57:30;32.80;41.60
9919;DHT22;4998;51.024;13.828;2022-08-18T11:59:57;32.80;41.90
9919;DHT22;4998;51.024;13.828;2022-08-18T12:02:24;32.70;41.90
9919;DHT22;4998;51.024;13.828;2022-08-18T12:04:54;32.60;42.00
9919;DHT22;4998;51.024;13.828;2022-08-18T12:07:27;32.50;42.10
9919;DHT22;4998;51.024;13.828;2022-08-18T12:10:14;32.40;42.30
9919;DHT22;4998;51.024;13.828;2022-08-18T12:12:47;32.40;42.60
9919;DHT22;4998;51.024;13.828;2022-08-18T12:15:26;32.30;42.70
9919;DHT22;4998;51.024;13.828;2022-08-18T12:17:54;32.20;42.80
9919;DHT22;4998;51.024;13.828;2022-08-18T12:20:21;32.20;42.90
9919;DHT22;4998;51.024;13.828;2022-08-18T12:22:48;32.20;43.00
9919;DHT22;4998;51.024;13.828;2022-08-18T12:25:17;32.20;42.90
9919;DHT22;4998;51.024;13.828;2022-08-18T12:27:45;32.20;42.90
9919;DHT22;4998;51.024;13.828;2022-08-18T12:30:13;32.10;42.90
9919;DHT22;4998;51.024;13.828;2022-08-18T12:32:40;32.10;43.00
9919;DHT22;4998;51.024;13.828;2022-08-18T12:35:09;32.10;43.10
9919;DHT22;4998;51.024;13.828;2022-08-18T12:37:39;32.10;43.10
9919;DHT22;4998;51.024;13.828;2022-08-18T12:40:08;32.10;43.10
9919;DHT22;4998;51.024;13.828;2022-08-18T12:42:36;32.10;43.20
9919;DHT22;4998;51.024;13.828;2022-08-18T12:45:05;32.10;43.30
9919;DHT22;4998;51.024;13.828;2022-08-18T12:47:37;32.10;43.30
9919;DHT22;4998;51.024;13.828;2022-08-18T12:50:06;32.10;43.40
9919;DHT22;4998;51.024;13.828;2022-08-18T12:52:33;32.00;43.50
9919;DHT22;4998;51.024;13.828;2022-08-18T12:55:00;32.00;43.60
9919;DHT22;4998;51.024;13.828;2022-08-18T12:57:27;32.00;43.70
9919;DHT22;4998;51.024;13.828;2022-08-18T12:59:54;32.00;43.70
9919;DHT22;4998;51.024;13.828;2022-08-18T13:02:23;32.00;43.70
9919;DHT22;4998;51.024;13.828;2022-08-18T13:04:50;32.10;43.80
9919;DHT22;4998;51.024;13.828;2022-08-18T13:07:16;32.10;43.70
9919;DHT22;4998;51.024;13.828;2022-08-18T13:09:44;32.10;43.70
9919;DHT22;4998;51.024;13.828;2022-08-18T13:12:11;32.00;43.60
9919;DHT22;4998;51.024;13.828;2022-08-18T13:14:38;32.00;43.50
9919;DHT22;4998;51.024;13.828;2022-08-18T13:17:05;32.00;43.60
9919;DHT22;4998;51.024;13.828;2022-08-18T13:19:34;31.90;43.60
9919;DHT22;4998;51.024;13.828;2022-08-18T13:22:01;31.90;43.70
9919;DHT22;4998;51.024;13.828;2022-08-18T13:24:28;31.90;43.70
9919;DHT22;4998;51.024;13.828;2022-08-18T13:26:55;31.90;43.80
9919;DHT22;4998;51.024;13.828;2022-08-18T13:29:22;31.90;43.90
9919;DHT22;4998;51.024;13.828;2022-08-18T13:31:50;31.90;44.10
9919;DHT22;4998;51.024;13.828;2022-08-18T13:34:22;31.90;44.10
9919;DHT22;4998;51.024;13.828;2022-08-18T13:36:50;31.90;44.10
9919;DHT22;4998;51.024;13.828;2022-08-18T13:39:20;31.90;44.10
9919;DHT22;4998;51.024;13.828;2022-08-18T13:41:49;31.90;44.10
9919;DHT22;4998;51.024;13.828;2022-08-18T13:44:18;32.00;44.10
9919;DHT22;4998;51.024;13.828;2022-08-18T13:46:46;32.00;44.20
9919;DHT22;4998;51.024;13.828;2022-08-18T13:49:13;32.10;44.30
9919;DHT22;4998;51.024;13.828;2022-08-18T13:51:41;32.00;44.20
9919;DHT22;4998;51.024;13.828;2022-08-18T13:54:13;32.10;44.30
9919;DHT22;4998;51.024;13.828;2022-08-18T13:56:41;32.20;44.40
9919;DHT22;4998;51.024;13.828;2022-08-18T13:59:08;32.20;44.30
9919;DHT22;4998;51.024;13.828;2022-08-18T14:01:35;32.30;44.30
9919;DHT22;4998;51.024;13.828;2022-08-18T14:04:02;32.40;44.30
9919;DHT22;4998;51.024;13.828;2022-08-18T14:06:30;32.40;44.20
9919;DHT22;4998;51.024;13.828;2022-08-18T14:08:56;32.50;44.10
9919;DHT22;4998;51.024;13.828;2022-08-18T14:11:30;32.60;44.20
9919;DHT22;4998;51.024;13.828;2022-08-18T14:13:59;32.60;44.00
9919;DHT22;4998;51.024;13.828;2022-08-18T14:16:26;32.70;44.00
9919;DHT22;4998;51.024;13.828;2022-08-18T14:18:53;32.70;44.00
9919;DHT22;4998;51.024;13.828;2022-08-18T14:21:41;32.70;44.10
9919;DHT22;4998;51.024;13.828;2022-08-18T14:24:26;32.70;44.00
9919;DHT22;4998;51.024;13.828;2022-08-18T14:27:12;32.80;44.00
9919;DHT22;4998;51.024;13.828;2022-08-18T14:29:39;32.70;44.10
9919;DHT22;4998;51.024;13.828;2022-08-18T14:32:08;32.70;44.10
9919;DHT22;4998;51.024;13.828;2022-08-18T14:34:35;32.70;44.10
9919;DHT22;4998;51.024;13.828;2022-08-18T14:37:02;32.70;44.10
9919;DHT22;4998;51.024;13.828;2022-08-18T14:39:29;32.70;44.20
9919;DHT22;4998;51.024;13.828;2022-08-18T14:41:56;32.60;44.20
9919;DHT22;4998;51.024;13.828;2022-08-18T14:44:25;32.60;44.30
9919;DHT22;4998;51.024;13.828;2022-08-18T14:46:52;32.50;44.30
9919;DHT22;4998;51.024;13.828;2022-08-18T14:49:22;32.50;44.40
9919;DHT22;4998;51.024;13.828;2022-08-18T14:51:49;32.50;44.50
9919;DHT22;4998;51.024;13.828;2022-08-18T14:54:16;32.50;44.60
9919;DHT22;4998;51.024;13.828;2022-08-18T14:56:43;32.50;44.60
9919;DHT22;4998;51.024;13.828;2022-08-18T14:59:10;32.50;44.70
9919;DHT22;4998;51.024;13.828;2022-08-18T15:01:38;32.50;44.80
9919;DHT22;4998;51.024;13.828;2022-08-18T15:04:05;32.50;44.90
9919;DHT22;4998;51.024;13.828;2022-08-18T15:06:32;32.50;44.90
9919;DHT22;4998;51.024;13.828;2022-08-18T15:08:59;32.50;44.90
9919;DHT22;4998;51.024;13.828;2022-08-18T15:11:25;32.50;44.90
9919;DHT22;4998;51.024;13.828;2022-08-18T15:13:52;32.50;44.90
9919;DHT22;4998;51.024;13.828;2022-08-18T15:16:19;32.50;44.90
9919;DHT22;4998;51.024;13.828;2022-08-18T15:18:49;32.50;45.00
9919;DHT22;4998;51.024;13.828;2022-08-18T15:21:15;32.50;45.10
9919;DHT22;4998;51.024;13.828;2022-08-18T15:24:00;32.50;45.20
9919;DHT22;4998;51.024;13.828;2022-08-18T15:26:44;32.50;45.20
9919;DHT22;4998;51.024;13.828;2022-08-18T15:29:12;32.50;45.10
9919;DHT22;4998;51.024;13.828;2022-08-18T15:31:39;32.40;45.20
9919;DHT22;4998;51.024;13.828;2022-08-18T15:34:07;32.40;45.30
9919;DHT22;4998;51.024;13.828;2022-08-18T15:36:35;32.40;45.30
9919;DHT22;4998;51.024;13.828;2022-08-18T15:39:02;32.40;45.40
9919;DHT22;4998;51.024;13.828;2022-08-18T15:41:33;32.40;45.50
9919;DHT22;4998;51.024;13.828;2022-08-18T15:44:01;32.40;45.60
9919;DHT22;4998;51.024;13.828;2022-08-18T15:46:31;32.40;45.60
9919;DHT22;4998;51.024;13.828;2022-08-18T15:48:58;32.40;45.70
9919;DHT22;4998;51.024;13.828;2022-08-18T15:51:26;32.40;45.60
9919;DHT22;4998;51.024;13.828;2022-08-18T15:53:53;32.40;45.60
9919;DHT22;4998;51.024;13.828;2022-08-18T15:56:21;32.40;45.60
9919;DHT22;4998;51.024;13.828;2022-08-18T15:58:49;32.40;46.30
9919;DHT22;4998;51.024;13.828;2022-08-18T16:01:17;32.40;45.70
9919;DHT22;4998;51.024;13.828;2022-08-18T16:03:45;32.40;45.70
9919;DHT22;4998;51.024;13.828;2022-08-18T16:06:14;32.40;45.80
9919;DHT22;4998;51.024;13.828;2022-08-18T16:08:42;32.30;46.40
9919;DHT22;4998;51.024;13.828;2022-08-18T16:11:11;32.30;45.90
9919;DHT22;4998;51.024;13.828;2022-08-18T16:13:40;32.30;45.90
9919;DHT22;4998;51.024;13.828;2022-08-18T16:16:09;32.30;45.90
9919;DHT22;4998;51.024;13.828;2022-08-18T16:18:37;32.20;45.90
9919;DHT22;4998;51.024;13.828;2022-08-18T16:21:06;32.20;46.00
9919;DHT22;4998;51.024;13.828;2022-08-18T16:23:36;32.20;46.10
9919;DHT22;4998;51.024;13.828;2022-08-18T16:26:05;32.10;46.10
9919;DHT22;4998;51.024;13.828;2022-08-18T16:28:33;32.10;46.20
9919;DHT22;4998;51.024;13.828;2022-08-18T16:31:01;32.10;46.20
9919;DHT22;4998;51.024;13.828;2022-08-18T16:33:28;32.00;46.10
9919;DHT22;4998;51.024;13.828;2022-08-18T16:36:00;32.00;46.20
9919;DHT22;4998;51.024;13.828;2022-08-18T16:38:27;31.90;46.30
9919;DHT22;4998;51.024;13.828;2022-08-18T16:40:54;31.90;46.40